createdAt,value
2023-10-20T00:00:16.086Z,99155.56
2023-10-20T00:02:44.835Z,99157.59
2023-10-20T00:05:12.695Z,99145.69
2023-10-20T00:07:40.385Z,99154.66
2023-10-20T00:10:10.845Z,99146.84
2023-10-20T00:12:40.383Z,99154.31
2023-10-20T00:15:15.554Z,99164.53
2023-10-20T00:17:44.176Z,99163.22
2023-10-20T00:20:12.386Z,99156.84
2023-10-20T00:22:40.487Z,99154.00
2023-10-20T00:25:08.538Z,99155.97
2023-10-20T00:27:36.078Z,99151.66
2023-10-20T00:30:03.914Z,99151.94
2023-10-20T00:32:32.271Z,99163.38
2023-10-20T00:35:00.039Z,99160.91
2023-10-20T00:37:27.588Z,99158.88
2023-10-20T00:39:55.200Z,99160.88
2023-10-20T00:42:22.795Z,99163.81
2023-10-20T00:44:50.498Z,99157.03
2023-10-20T00:47:19.531Z,99151.66
2023-10-20T00:49:47.425Z,99143.31
2023-10-20T00:52:16.339Z,99147.47
2023-10-20T00:54:48.651Z,99143.91
2023-10-20T00:57:17.533Z,99135.59
2023-10-20T00:59:45.530Z,99143.56
2023-10-20T01:02:14.141Z,99138.03
2023-10-20T01:04:42.034Z,99135.31
2023-10-20T01:07:09.625Z,99131.06
2023-10-20T01:09:37.242Z,99132.00
2023-10-20T01:12:05.634Z,99131.63
2023-10-20T01:14:37.263Z,99137.59
2023-10-20T01:17:04.977Z,99136.97
2023-10-20T01:19:33.230Z,99125.00
2023-10-20T01:22:01.157Z,99118.22
2023-10-20T01:24:28.930Z,99126.44
2023-10-20T01:26:56.591Z,99136.06
2023-10-20T01:29:27.254Z,99119.59
2023-10-20T01:31:54.866Z,99127.94
2023-10-20T01:34:22.884Z,99132.53
2023-10-20T01:36:50.599Z,99128.41
2023-10-20T01:39:18.495Z,99131.50
2023-10-20T01:41:46.086Z,99128.25
2023-10-20T01:44:16.754Z,99118.50
2023-10-20T01:46:50.767Z,99118.81
2023-10-20T01:49:20.295Z,99121.16
2023-10-20T01:51:48.440Z,99130.44
2023-10-20T01:54:15.943Z,99123.91
2023-10-20T01:56:45.127Z,99134.78
2023-10-20T01:59:13.106Z,99138.19
2023-10-20T02:01:40.749Z,99135.16
2023-10-20T02:04:09.189Z,99129.09
2023-10-20T02:06:36.807Z,99126.06
2023-10-20T02:09:04.611Z,99128.19
2023-10-20T02:11:32.798Z,99130.78
2023-10-20T02:14:00.436Z,99129.88
2023-10-20T02:16:28.080Z,99127.25
2023-10-20T02:18:55.932Z,99121.53
2023-10-20T02:21:23.556Z,99119.75
2023-10-20T02:23:51.588Z,99123.91
2023-10-20T02:26:20.534Z,99109.75
2023-10-20T02:28:48.655Z,99116.06
2023-10-20T02:31:19.052Z,99115.28
2023-10-20T02:33:47.237Z,99111.59
2023-10-20T02:36:22.664Z,99116.25
2023-10-20T02:38:55.213Z,99116.91
2023-10-20T02:41:23.017Z,99115.06
2023-10-20T02:43:50.626Z,99107.06
2023-10-20T02:46:18.316Z,99106.13
2023-10-20T02:48:46.629Z,99100.88
2023-10-20T02:51:18.961Z,99104.16
2023-10-20T02:53:48.521Z,99099.66
2023-10-20T02:56:20.960Z,99094.13
2023-10-20T02:58:49.105Z,99103.34
2023-10-20T03:01:19.842Z,99105.38
2023-10-20T03:03:47.799Z,99098.44
2023-10-20T03:06:15.461Z,99088.88
2023-10-20T03:08:44.387Z,99090.44
2023-10-20T03:11:12.736Z,99093.22
2023-10-20T03:13:40.360Z,99097.38
2023-10-20T03:16:08.353Z,99092.91
2023-10-20T03:18:36.123Z,99091.06
2023-10-20T03:21:04.563Z,99087.69
2023-10-20T03:23:32.759Z,99089.47
2023-10-20T03:26:00.355Z,99090.25
2023-10-20T03:28:28.245Z,99092.13
2023-10-20T03:30:56.168Z,99099.69
2023-10-20T03:33:24.169Z,99093.00
2023-10-20T03:36:04.642Z,99093.19
2023-10-20T03:38:34.150Z,99090.38
2023-10-20T03:41:08.915Z,99084.38
2023-10-20T03:43:37.879Z,99088.53
2023-10-20T03:46:07.416Z,99083.91
2023-10-20T03:48:36.829Z,99094.38
2023-10-20T03:51:08.815Z,99098.22
2023-10-20T03:53:49.155Z,99096.06
2023-10-20T03:56:20.474Z,99102.09
2023-10-20T03:58:48.422Z,99103.63
2023-10-20T04:01:16.420Z,99093.00
2023-10-20T04:03:52.225Z,99096.06
2023-10-20T04:06:21.580Z,99093.59
2023-10-20T04:08:50.255Z,99095.00
2023-10-20T04:11:18.305Z,99093.59
2023-10-20T04:13:46.051Z,99091.16
2023-10-20T04:16:17.754Z,99095.97
2023-10-20T04:18:46.026Z,99095.34
2023-10-20T04:21:13.753Z,99094.25
2023-10-20T04:23:45.114Z,99102.09
2023-10-20T04:26:22.601Z,99102.91
2023-10-20T04:29:16.978Z,99105.81
2023-10-20T04:32:09.702Z,99097.94
2023-10-20T04:35:09.849Z,99105.16
2023-10-20T04:37:56.226Z,99103.38
2023-10-20T04:40:42.343Z,99108.28
2023-10-20T04:43:15.998Z,99114.63
2023-10-20T04:46:02.232Z,99119.84
2023-10-20T04:48:52.686Z,99109.38
2023-10-20T04:51:31.134Z,99107.97
2023-10-20T04:54:23.656Z,99109.53
2023-10-20T04:57:16.929Z,99098.28
2023-10-20T04:59:45.707Z,99103.63
2023-10-20T05:02:34.593Z,99105.47
2023-10-20T05:05:02.774Z,99110.91
2023-10-20T05:07:30.356Z,99109.84
2023-10-20T05:09:58.424Z,99100.28
2023-10-20T05:12:26.616Z,99105.84
2023-10-20T05:14:54.272Z,99109.69
2023-10-20T05:17:22.317Z,99113.56
2023-10-20T05:19:50.829Z,99117.56
2023-10-20T05:22:18.364Z,99126.19
2023-10-20T05:24:46.104Z,99122.31
2023-10-20T05:27:13.788Z,99121.22
2023-10-20T05:29:43.771Z,99115.69
2023-10-20T05:32:11.545Z,99124.41
2023-10-20T05:34:39.143Z,99131.50
2023-10-20T05:37:07.404Z,99137.81
2023-10-20T05:39:36.125Z,99136.38
2023-10-20T05:42:07.371Z,99141.28
2023-10-20T05:44:39.228Z,99130.00
2023-10-20T05:47:07.376Z,99121.75
2023-10-20T05:49:38.649Z,99123.69
2023-10-20T05:52:08.448Z,99121.59
2023-10-20T05:54:42.128Z,99121.06
2023-10-20T05:57:12.942Z,99120.72
2023-10-20T05:59:42.449Z,99124.66
2023-10-20T06:02:10.214Z,99125.91
2023-10-20T06:04:48.705Z,99122.91
2023-10-20T06:07:16.419Z,99123.75
2023-10-20T06:09:44.369Z,99119.31
2023-10-20T06:12:13.433Z,99115.69
2023-10-20T06:14:40.964Z,99123.88
2023-10-20T06:17:08.591Z,99121.34
2023-10-20T06:19:37.135Z,99127.94
2023-10-20T06:22:06.155Z,99125.53
2023-10-20T06:24:34.615Z,99120.31
2023-10-20T06:27:05.090Z,99136.81
2023-10-20T06:29:32.991Z,99144.28
2023-10-20T06:32:13.518Z,99136.88
2023-10-20T06:34:44.124Z,99137.13
2023-10-20T06:37:15.618Z,99149.81
2023-10-20T06:39:43.393Z,99154.44
2023-10-20T06:42:11.023Z,99157.38
2023-10-20T06:44:38.626Z,99160.66
2023-10-20T06:47:06.378Z,99170.44
2023-10-20T06:49:34.469Z,99161.84
2023-10-20T06:52:05.563Z,99164.78
2023-10-20T06:54:34.076Z,99173.09
2023-10-20T06:57:02.024Z,99161.44
2023-10-20T06:59:29.743Z,99165.13
2023-10-20T07:02:01.592Z,99164.34
2023-10-20T07:04:30.500Z,99158.13
2023-10-20T07:06:58.633Z,99155.56
2023-10-20T07:09:28.213Z,99156.25
2023-10-20T07:11:55.793Z,99171.22
2023-10-20T07:14:23.538Z,99167.81
2023-10-20T07:16:52.098Z,99164.06
2023-10-20T07:19:19.668Z,99162.44
2023-10-20T07:21:47.267Z,99171.00
2023-10-20T07:24:14.884Z,99162.38
2023-10-20T07:26:43.435Z,99154.22
2023-10-20T07:29:11.331Z,99161.53
2023-10-20T07:31:40.843Z,99165.25
2023-10-20T07:34:11.040Z,99156.38
2023-10-20T07:36:38.849Z,99172.75
2023-10-20T07:39:09.829Z,99162.81
2023-10-20T07:41:38.359Z,99158.03
2023-10-20T07:44:06.177Z,99160.69
2023-10-20T07:46:33.736Z,99164.34
2023-10-20T07:49:01.402Z,99158.13
2023-10-20T07:51:29.697Z,99156.59
2023-10-20T07:53:57.322Z,99164.13
2023-10-20T07:56:26.366Z,99161.34
2023-10-20T07:58:54.333Z,99149.84
2023-10-20T08:01:21.993Z,99145.72
2023-10-20T08:03:50.488Z,99151.38
2023-10-20T08:06:18.482Z,99140.88
2023-10-20T08:08:47.221Z,99143.28
2023-10-20T08:11:14.889Z,99148.25
2023-10-20T08:13:42.537Z,99142.56
2023-10-20T08:16:10.876Z,99138.75
2023-10-20T08:18:38.691Z,99136.00
2023-10-20T08:21:10.869Z,99148.91
2023-10-20T08:23:39.837Z,99147.25
2023-10-20T08:26:14.157Z,99138.78
2023-10-20T08:28:41.791Z,99137.84
2023-10-20T08:31:21.001Z,99139.75
2023-10-20T08:33:49.870Z,99145.63
2023-10-20T08:36:18.230Z,99141.13
2023-10-20T08:38:48.940Z,99141.22
2023-10-20T08:41:25.744Z,99136.53
2023-10-20T08:43:54.815Z,99131.66
2023-10-20T08:46:42.705Z,99127.50
2023-10-20T08:49:11.484Z,99129.31
2023-10-20T08:51:42.385Z,99123.81
2023-10-20T08:54:10.390Z,99128.78
2023-10-20T08:56:38.218Z,99128.03
2023-10-20T08:59:06.887Z,99129.66
2023-10-20T09:01:35.978Z,99132.94
2023-10-20T09:04:06.147Z,99123.09
2023-10-20T09:06:38.005Z,99131.03
2023-10-20T09:09:07.345Z,99129.16
2023-10-20T09:11:35.168Z,99123.84
2023-10-20T09:14:03.961Z,99119.72
2023-10-20T09:16:31.601Z,99114.03
2023-10-20T09:18:59.752Z,99110.19
2023-10-20T09:21:30.897Z,99113.25
2023-10-20T09:24:04.798Z,99114.81
2023-10-20T09:26:37.302Z,99102.63
2023-10-20T09:29:09.344Z,99098.44
2023-10-20T09:31:38.924Z,99098.06
2023-10-20T09:34:08.369Z,99102.63
2023-10-20T09:36:38.271Z,99104.91
2023-10-20T09:39:09.812Z,99107.91
2023-10-20T09:41:46.164Z,99109.28
2023-10-20T09:44:35.210Z,99103.91
2023-10-20T09:47:14.358Z,99101.56
2023-10-20T09:49:44.505Z,99102.28
2023-10-20T09:52:12.378Z,99103.13
2023-10-20T09:54:40.660Z,99102.34
2023-10-20T09:57:09.246Z,99090.19
2023-10-20T09:59:40.365Z,99090.13
2023-10-20T10:02:08.965Z,99091.53
2023-10-20T10:04:42.703Z,99088.41
2023-10-20T10:07:12.132Z,99090.22
2023-10-20T10:09:44.762Z,99087.97
2023-10-20T10:12:17.799Z,99095.69
2023-10-20T10:15:24.035Z,99083.75
2023-10-20T10:17:55.940Z,99081.56
2023-10-20T10:20:30.031Z,99077.41
2023-10-20T10:23:03.003Z,99077.41
2023-10-20T10:25:46.989Z,99072.00
2023-10-20T10:28:21.289Z,99065.03
2023-10-20T10:30:53.989Z,99065.09
2023-10-20T10:33:24.259Z,99054.78
2023-10-20T10:36:11.694Z,99051.03
2023-10-20T10:38:46.830Z,99050.84
2023-10-20T10:41:14.651Z,99048.03
2023-10-20T10:43:42.494Z,99045.88
2023-10-20T10:46:13.312Z,99049.88
2023-10-20T10:48:42.044Z,99042.75
2023-10-20T10:51:09.622Z,99042.53
2023-10-20T10:53:39.255Z,99035.06
2023-10-20T10:56:07.868Z,99027.97
2023-10-20T10:58:37.027Z,99030.09
2023-10-20T11:01:05.101Z,99030.81
2023-10-20T11:03:33.247Z,99030.25
2023-10-20T11:06:01.456Z,99030.66
2023-10-20T11:08:30.833Z,99025.09
2023-10-20T11:11:00.378Z,99022.91
2023-10-20T11:13:29.459Z,99026.34
2023-10-20T11:15:57.225Z,99023.81
2023-10-20T11:20:57.427Z,99016.88
2023-10-20T11:23:35.461Z,99022.97
2023-10-20T11:26:04.005Z,99015.25
2023-10-20T11:28:31.766Z,99019.16
2023-10-20T11:31:00.647Z,99020.72
2023-10-20T11:33:29.118Z,99014.50
2023-10-20T11:36:02.138Z,99006.16
2023-10-20T11:38:30.369Z,99001.47
2023-10-20T11:40:58.552Z,98999.88
2023-10-20T11:43:27.260Z,98995.63
2023-10-20T11:45:55.004Z,99000.34
2023-10-20T11:48:23.319Z,98999.94
2023-10-20T11:50:52.375Z,98999.94
2023-10-20T11:53:23.353Z,98996.22
2023-10-20T11:55:51.103Z,98991.31
2023-10-20T11:58:19.356Z,98992.56
2023-10-20T12:00:47.481Z,98987.91
2023-10-20T12:03:16.477Z,98984.94
2023-10-20T12:05:44.359Z,98986.75
2023-10-20T12:08:12.921Z,98985.56
2023-10-20T12:10:41.258Z,98978.09
2023-10-20T12:13:09.755Z,98976.44
2023-10-20T12:15:38.849Z,98972.72
2023-10-20T12:18:09.234Z,98961.44
2023-10-20T12:20:37.176Z,98971.34
2023-10-20T12:23:07.416Z,98967.13
2023-10-20T12:25:35.595Z,98965.81
2023-10-20T12:28:03.910Z,98961.22
2023-10-20T12:30:31.493Z,98969.66
2023-10-20T12:32:59.597Z,98957.59
2023-10-20T12:35:27.349Z,98971.34
2023-10-20T12:37:57.967Z,98962.91
2023-10-20T12:40:26.412Z,98973.41
2023-10-20T12:42:54.099Z,98973.03
2023-10-20T12:45:22.979Z,98973.63
2023-10-20T12:47:50.604Z,98970.31
2023-10-20T12:50:18.297Z,98971.56
2023-10-20T12:52:45.870Z,98973.22
2023-10-20T12:55:15.006Z,98967.06
2023-10-20T12:57:42.903Z,98961.47
2023-10-20T13:00:11.812Z,98967.03
2023-10-20T13:02:39.688Z,98956.50
2023-10-20T13:05:11.156Z,98964.09
2023-10-20T13:07:39.194Z,98954.19
2023-10-20T13:10:08.235Z,98957.50
2023-10-20T13:12:38.138Z,98961.59
2023-10-20T13:15:06.541Z,98957.13
2023-10-20T13:17:34.768Z,98947.00
2023-10-20T13:20:03.131Z,98949.44
2023-10-20T13:22:31.627Z,98939.00
2023-10-20T13:24:59.662Z,98947.13
2023-10-20T13:27:31.320Z,98948.88
2023-10-20T13:30:00.296Z,98952.50
2023-10-20T13:32:28.822Z,98952.97
2023-10-20T13:34:57.090Z,98957.19
2023-10-20T13:37:24.773Z,98954.66
2023-10-20T13:39:55.034Z,98950.28
2023-10-20T13:42:23.536Z,98946.31
2023-10-20T13:44:54.652Z,98948.91
2023-10-20T13:47:22.387Z,98943.44
2023-10-20T13:49:50.119Z,98940.50
2023-10-20T13:52:18.995Z,98946.47
2023-10-20T13:54:48.409Z,98952.13
2023-10-20T13:57:16.796Z,98945.03
2023-10-20T13:59:45.704Z,98938.69
2023-10-20T14:02:15.724Z,98949.81
2023-10-20T14:04:45.608Z,98950.94
2023-10-20T14:07:13.840Z,98953.84
2023-10-20T14:09:42.014Z,98953.94
2023-10-20T14:12:09.795Z,98951.53
2023-10-20T14:14:37.542Z,98958.09
2023-10-20T14:17:13.711Z,98945.56
2023-10-20T14:19:42.703Z,98952.56
2023-10-20T14:22:11.722Z,98955.03
2023-10-20T14:24:40.916Z,98952.38
2023-10-20T14:27:10.549Z,98952.97
2023-10-20T14:29:38.162Z,98950.72
2023-10-20T14:32:06.036Z,98958.06
2023-10-20T14:34:34.269Z,98961.16
2023-10-20T14:37:03.012Z,98956.97
2023-10-20T14:39:32.178Z,98964.50
2023-10-20T14:41:59.968Z,98964.84
2023-10-20T14:44:28.203Z,98965.09
2023-10-20T14:47:00.608Z,98966.69
2023-10-20T14:49:28.614Z,98967.19
2023-10-20T14:51:56.372Z,98964.13
2023-10-20T14:54:31.730Z,98951.38
2023-10-20T14:56:59.553Z,98949.38
2023-10-20T14:59:29.483Z,98959.84
2023-10-20T15:02:02.108Z,98958.00
2023-10-20T15:04:35.544Z,98959.22
2023-10-20T15:07:06.275Z,98961.00
2023-10-20T15:09:37.622Z,98967.53
2023-10-20T15:12:08.821Z,98972.97
2023-10-20T15:14:58.443Z,98973.44
2023-10-20T15:17:30.251Z,98973.97
2023-10-20T15:20:09.353Z,98982.00
2023-10-20T15:22:41.779Z,98973.81
2023-10-20T15:25:16.191Z,98980.13
2023-10-20T15:27:44.029Z,98977.13
2023-10-20T15:30:13.923Z,98973.25
2023-10-20T15:32:48.424Z,98977.47
2023-10-20T15:35:18.330Z,98980.69
2023-10-20T15:37:48.411Z,98976.91
2023-10-20T15:40:19.064Z,98969.94
2023-10-20T15:42:51.673Z,98983.81
2023-10-20T15:45:22.306Z,98984.06
2023-10-20T15:47:53.725Z,98989.69
2023-10-20T15:50:23.592Z,98982.22
2023-10-20T15:52:51.718Z,98990.78
2023-10-20T15:55:20.742Z,98991.25
2023-10-20T15:57:54.043Z,98987.13
2023-10-20T16:00:23.402Z,99005.47
2023-10-20T16:02:54.514Z,98993.34
2023-10-20T16:05:22.844Z,98995.34
2023-10-20T16:07:54.218Z,99001.03
2023-10-20T16:10:23.464Z,99004.56
2023-10-20T16:12:53.829Z,99005.34
2023-10-20T16:15:24.067Z,98996.63
2023-10-20T16:17:56.324Z,99010.03
2023-10-20T16:20:30.060Z,99008.13
2023-10-20T16:23:07.806Z,99002.09
2023-10-20T16:25:41.032Z,99011.63
2023-10-20T16:28:10.052Z,99013.16
2023-10-20T16:30:42.222Z,99008.22
2023-10-20T16:33:12.201Z,99013.56
2023-10-20T16:35:49.426Z,99010.91
2023-10-20T16:38:18.667Z,99017.38
2023-10-20T16:40:53.476Z,99018.16
2023-10-20T16:43:23.529Z,99028.78
2023-10-20T16:45:56.181Z,99019.25
2023-10-20T16:48:26.559Z,99024.19
2023-10-20T16:51:03.509Z,99028.34
2023-10-20T16:53:33.236Z,99029.47
2023-10-20T16:56:02.631Z,99032.13
2023-10-20T16:58:32.556Z,99034.75
2023-10-20T17:01:06.999Z,99029.78
2023-10-20T17:03:36.657Z,99033.91
2023-10-20T17:06:24.614Z,99037.28
2023-10-20T17:08:53.597Z,99032.31
2023-10-20T17:11:24.441Z,99020.94
2023-10-20T17:13:53.333Z,99038.44
2023-10-20T17:16:25.643Z,99038.38
2023-10-20T17:18:55.837Z,99042.16
2023-10-20T17:21:48.355Z,99042.81
2023-10-20T17:24:17.128Z,99045.13
2023-10-20T17:26:46.859Z,99048.09
2023-10-20T17:29:15.706Z,99047.22
2023-10-20T17:31:46.990Z,99054.78
2023-10-20T17:34:15.152Z,99057.06
2023-10-20T17:36:47.303Z,99051.34
2023-10-20T17:39:22.074Z,99050.47
2023-10-20T17:41:56.148Z,99058.81
2023-10-20T17:44:24.728Z,99070.53
2023-10-20T17:46:57.215Z,99067.81
2023-10-20T17:49:26.760Z,99070.09
2023-10-20T17:52:16.007Z,99076.44
2023-10-20T17:54:48.360Z,99077.09
2023-10-20T17:57:20.471Z,99077.81
2023-10-20T17:59:52.054Z,99073.97
2023-10-20T18:02:25.162Z,99077.28
2023-10-20T18:04:58.607Z,99087.13
2023-10-20T18:07:30.426Z,99086.72
2023-10-20T18:10:01.878Z,99090.44
2023-10-20T18:12:50.585Z,99089.28
2023-10-20T18:15:22.089Z,99097.19
2023-10-20T18:17:54.113Z,99094.53
2023-10-20T18:20:25.326Z,99090.34
2023-10-20T18:22:59.452Z,99093.75
2023-10-20T18:25:30.327Z,99099.19
2023-10-20T18:28:09.134Z,99102.22
2023-10-20T18:30:43.238Z,99101.09
2023-10-20T18:33:13.988Z,99114.19
2023-10-20T18:36:05.352Z,99118.25
2023-10-20T18:38:35.145Z,99118.97
2023-10-20T18:41:04.543Z,99111.28
2023-10-20T18:43:34.997Z,99120.88
2023-10-20T18:46:26.147Z,99122.91
2023-10-20T18:49:04.938Z,99116.03
2023-10-20T18:51:36.277Z,99113.72
2023-10-20T18:54:27.141Z,99124.66
2023-10-20T18:56:56.151Z,99120.00
2023-10-20T18:59:25.573Z,99121.09
2023-10-20T19:02:03.726Z,99124.22
2023-10-20T19:04:36.591Z,99128.84
2023-10-20T19:07:09.340Z,99136.75
2023-10-20T19:09:43.872Z,99143.38
2023-10-20T19:12:14.123Z,99145.31
2023-10-20T19:14:42.239Z,99138.81
2023-10-20T19:17:10.985Z,99152.97
2023-10-20T19:19:43.361Z,99144.19
2023-10-20T19:22:14.125Z,99145.25
2023-10-20T19:24:45.014Z,99145.06
2023-10-20T19:27:14.350Z,99152.19
2023-10-20T19:29:42.466Z,99150.22
2023-10-20T19:32:10.330Z,99149.09
2023-10-20T19:34:39.595Z,99153.22
2023-10-20T19:37:07.499Z,99154.25
2023-10-20T19:39:37.621Z,99163.81
2023-10-20T19:42:09.370Z,99172.28
2023-10-20T19:44:41.023Z,99179.84
2023-10-20T19:47:11.460Z,99182.88
2023-10-20T19:49:40.256Z,99185.34
2023-10-20T19:52:08.498Z,99190.47
2023-10-20T19:54:37.044Z,99189.97
2023-10-20T19:57:05.251Z,99191.09
2023-10-20T19:59:33.738Z,99192.34
2023-10-20T20:02:03.434Z,99192.53
2023-10-20T20:04:34.263Z,99203.59
2023-10-20T20:07:04.213Z,99202.06
2023-10-20T20:09:32.245Z,99206.41
2023-10-20T20:12:00.717Z,99214.91
2023-10-20T20:14:28.662Z,99202.81
2023-10-20T20:16:57.127Z,99204.88
2023-10-20T20:19:25.205Z,99217.72
2023-10-20T20:21:53.059Z,99211.03
2023-10-20T20:24:23.629Z,99212.13
2023-10-20T20:26:52.259Z,99218.47
2023-10-20T20:29:19.891Z,99221.22
2023-10-20T20:31:47.661Z,99212.69
2023-10-20T20:34:20.619Z,99221.47
2023-10-20T20:36:50.990Z,99225.06
2023-10-20T20:39:19.647Z,99225.47
2023-10-20T20:41:54.534Z,99221.22
2023-10-20T20:44:22.519Z,99226.25
2023-10-20T20:46:52.390Z,99221.38
2023-10-20T20:49:20.053Z,99220.97
2023-10-20T20:51:47.964Z,99223.19
2023-10-20T20:54:16.827Z,99220.78
2023-10-20T20:56:47.093Z,99223.44
2023-10-20T20:59:14.749Z,99232.00
2023-10-20T21:01:42.439Z,99229.97
2023-10-20T21:04:10.097Z,99238.75
2023-10-20T21:06:37.857Z,99236.47
2023-10-20T21:09:08.494Z,99225.47
2023-10-20T21:11:37.903Z,99229.56
2023-10-20T21:14:09.658Z,99228.28
2023-10-20T21:16:40.444Z,99225.66
2023-10-20T21:19:09.474Z,99230.69
2023-10-20T21:21:38.363Z,99229.38
2023-10-20T21:24:10.421Z,99223.53
2023-10-20T21:26:41.046Z,99223.69
2023-10-20T21:29:11.713Z,99227.31
2023-10-20T21:31:40.220Z,99234.44
2023-10-20T21:34:10.389Z,99239.06
2023-10-20T21:36:38.189Z,99236.41
2023-10-20T21:39:11.434Z,99231.81
2023-10-20T21:41:41.425Z,99240.91
2023-10-20T21:44:12.507Z,99243.56
2023-10-20T21:46:42.884Z,99231.28
2023-10-20T21:49:10.751Z,99237.44
2023-10-20T21:51:40.149Z,99240.06
2023-10-20T21:54:08.452Z,99236.31
2023-10-20T21:56:36.840Z,99236.72
2023-10-20T21:59:04.816Z,99236.91
2023-10-20T22:01:32.429Z,99237.06
2023-10-20T22:04:00.190Z,99240.00
2023-10-20T22:06:27.951Z,99230.06
2023-10-20T22:08:55.627Z,99227.00
2023-10-20T22:11:23.333Z,99237.91
2023-10-20T22:13:50.956Z,99242.00
2023-10-20T22:16:18.656Z,99247.69
2023-10-20T22:18:49.884Z,99243.31
2023-10-20T22:21:17.749Z,99241.69
2023-10-20T22:23:45.539Z,99240.84
2023-10-20T22:26:13.320Z,99240.84
2023-10-20T22:28:40.996Z,99229.84
2023-10-20T22:31:10.412Z,99234.34
2023-10-20T22:33:38.375Z,99232.09
2023-10-20T22:36:06.468Z,99229.81
2023-10-20T22:38:34.291Z,99233.31
2023-10-20T22:41:02.733Z,99227.91
2023-10-20T22:43:30.320Z,99232.00
2023-10-20T22:46:02.528Z,99236.59
2023-10-20T22:48:30.521Z,99237.53
2023-10-20T22:50:58.145Z,99233.34
2023-10-20T22:53:25.714Z,99242.03
2023-10-20T22:55:53.293Z,99242.13
2023-10-20T22:58:20.839Z,99236.88
2023-10-20T23:00:48.421Z,99236.13
2023-10-20T23:03:16.130Z,99244.66
2023-10-20T23:05:43.912Z,99236.22
2023-10-20T23:08:11.542Z,99229.84
2023-10-20T23:10:39.185Z,99235.22
2023-10-20T23:13:07.738Z,99245.78
2023-10-20T23:15:42.834Z,99252.03
2023-10-20T23:18:11.509Z,99249.63
2023-10-20T23:20:39.973Z,99251.41
2023-10-20T23:23:07.787Z,99251.75
2023-10-20T23:25:36.236Z,99259.66
2023-10-20T23:28:04.833Z,99255.59
2023-10-20T23:30:32.380Z,99257.69
2023-10-20T23:33:00.221Z,99258.75
2023-10-20T23:35:27.952Z,99266.56
2023-10-20T23:37:55.560Z,99269.78
2023-10-20T23:40:27.095Z,99263.38
2023-10-20T23:42:54.631Z,99258.91
2023-10-20T23:45:22.839Z,99253.84
2023-10-20T23:47:51.001Z,99247.81
2023-10-20T23:50:18.721Z,99258.59
2023-10-20T23:52:46.241Z,99255.94
2023-10-20T23:55:13.907Z,99256.59
2023-10-20T23:57:41.490Z,99252.22
